createdAt,value
2024-02-02T00:00:44.821Z,1022.74
2024-02-02T00:01:44.984Z,1022.74
2024-02-02T00:02:45.187Z,1022.67
2024-02-02T00:03:45.415Z,1022.65
2024-02-02T00:04:45.480Z,1022.64
2024-02-02T00:05:45.581Z,1022.65
2024-02-02T00:06:45.898Z,1022.77
2024-02-02T00:07:45.937Z,1022.75
2024-02-02T00:08:46.087Z,1022.74
2024-02-02T00:09:46.229Z,1022.74
2024-02-02T00:10:46.380Z,1022.80
2024-02-02T00:11:46.605Z,1022.81
2024-02-02T00:12:46.692Z,1022.80
2024-02-02T00:13:46.835Z,1022.74
2024-02-02T00:14:47.059Z,1022.80
2024-02-02T00:15:47.181Z,1022.80
2024-02-02T00:16:47.323Z,1022.72
2024-02-02T00:17:47.540Z,1022.70
2024-02-02T00:18:47.880Z,1022.69
2024-02-02T00:19:47.828Z,1022.60
2024-02-02T00:20:48.036Z,1022.52
2024-02-02T00:21:48.083Z,1022.50
2024-02-02T00:22:48.212Z,1022.58
2024-02-02T00:23:48.403Z,1022.54
2024-02-02T00:24:48.520Z,1022.52
2024-02-02T00:25:48.696Z,1022.50
2024-02-02T00:26:48.923Z,1022.50
2024-02-02T00:27:49.020Z,1022.50
2024-02-02T00:28:49.213Z,1022.48
2024-02-02T00:29:49.426Z,1022.51
2024-02-02T00:30:49.469Z,1022.51
2024-02-02T00:31:49.626Z,1022.52
2024-02-02T00:32:49.916Z,1022.53
2024-02-02T00:33:50.209Z,1022.53
2024-02-02T00:34:50.268Z,1022.52
2024-02-02T00:35:50.410Z,1022.50
2024-02-02T00:36:50.553Z,1022.56
2024-02-02T00:37:50.705Z,1022.55
2024-02-02T00:38:50.928Z,1022.53
2024-02-02T00:39:51.072Z,1022.54
2024-02-02T00:40:51.232Z,1022.56
2024-02-02T00:41:51.418Z,1022.57
2024-02-02T00:42:51.569Z,1022.54
2024-02-02T00:43:51.718Z,1022.58
2024-02-02T00:44:52.902Z,1022.57
2024-02-02T00:45:52.034Z,1022.60
2024-02-02T00:46:52.177Z,1022.58
2024-02-02T00:47:52.468Z,1022.57
2024-02-02T00:48:52.726Z,1022.58
2024-02-02T00:49:52.718Z,1022.58
2024-02-02T00:50:52.882Z,1022.49
2024-02-02T00:51:53.013Z,1022.55
2024-02-02T00:52:53.237Z,1022.49
2024-02-02T00:53:53.417Z,1022.55
2024-02-02T00:54:53.527Z,1022.52
2024-02-02T00:55:53.703Z,1022.46
2024-02-02T00:56:53.987Z,1022.49
2024-02-02T00:57:54.048Z,1022.48
2024-02-02T00:58:54.216Z,1022.52
2024-02-02T00:59:54.410Z,1022.49
2024-02-02T01:00:54.609Z,1022.54
2024-02-02T01:01:54.699Z,1022.52
2024-02-02T01:02:54.911Z,1022.46
2024-02-02T01:03:55.057Z,1022.46
2024-02-02T01:04:55.284Z,1022.42
2024-02-02T01:05:55.341Z,1022.46
2024-02-02T01:06:55.595Z,1022.42
2024-02-02T01:07:55.606Z,1022.48
2024-02-02T01:08:55.712Z,1022.48
2024-02-02T01:09:55.870Z,1022.53
2024-02-02T01:10:57.425Z,1022.52
2024-02-02T01:11:56.138Z,1022.54
2024-02-02T01:12:56.284Z,1022.58
2024-02-02T01:13:56.436Z,1022.63
2024-02-02T01:14:56.640Z,1022.62
2024-02-02T01:15:56.755Z,1022.63
2024-02-02T01:16:56.899Z,1022.69
2024-02-02T01:17:57.050Z,1022.77
2024-02-02T01:18:57.192Z,1022.65
2024-02-02T01:19:57.312Z,1022.74
2024-02-02T01:20:57.438Z,1022.78
2024-02-02T01:21:57.578Z,1022.77
2024-02-02T01:22:57.745Z,1022.76
2024-02-02T01:23:57.900Z,1022.77
2024-02-02T01:24:58.050Z,1022.77
2024-02-02T01:25:58.194Z,1022.76
2024-02-02T01:26:58.371Z,1022.77
2024-02-02T01:27:58.521Z,1022.78
2024-02-02T01:28:58.665Z,1022.80
2024-02-02T01:29:58.846Z,1022.81
2024-02-02T01:30:58.982Z,1022.77
2024-02-02T01:31:59.099Z,1022.72
2024-02-02T01:32:59.418Z,1022.80
2024-02-02T01:33:59.552Z,1022.80
2024-02-02T01:34:59.641Z,1022.76
2024-02-02T01:35:59.814Z,1022.78
2024-02-02T01:36:59.909Z,1022.75
2024-02-02T01:38:00.075Z,1022.79
2024-02-02T01:39:00.230Z,1022.80
2024-02-02T01:40:00.347Z,1022.83
2024-02-02T01:41:01.446Z,1022.76
2024-02-02T01:42:00.624Z,1022.82
2024-02-02T01:43:00.791Z,1022.80
2024-02-02T01:44:00.926Z,1022.72
2024-02-02T01:45:01.106Z,1022.74
2024-02-02T01:46:01.234Z,1022.77
2024-02-02T01:47:01.377Z,1022.72
2024-02-02T01:48:01.671Z,1022.75
2024-02-02T01:49:01.838Z,1022.74
2024-02-02T01:50:01.909Z,1022.70
2024-02-02T01:51:01.919Z,1022.65
2024-02-02T01:52:02.054Z,1022.63
2024-02-02T01:53:02.280Z,1022.64
2024-02-02T01:54:02.435Z,1022.64
2024-02-02T01:55:02.570Z,1022.61
2024-02-02T01:56:02.783Z,1022.67
2024-02-02T01:57:02.939Z,1022.65
2024-02-02T01:58:03.088Z,1022.65
2024-02-02T01:59:03.233Z,1022.63
2024-02-02T02:00:03.473Z,1022.63
2024-02-02T02:01:03.621Z,1022.61
2024-02-02T02:02:03.753Z,1022.58
2024-02-02T02:03:04.060Z,1022.62
2024-02-02T02:04:04.144Z,1022.64
2024-02-02T02:05:04.187Z,1022.66
2024-02-02T02:06:04.381Z,1022.66
2024-02-02T02:07:04.420Z,1022.66
2024-02-02T02:08:04.562Z,1022.65
2024-02-02T02:09:04.763Z,1022.67
2024-02-02T02:10:04.937Z,1022.65
2024-02-02T02:11:05.029Z,1022.71
2024-02-02T02:12:05.212Z,1022.68
2024-02-02T02:13:05.353Z,1022.69
2024-02-02T02:14:05.488Z,1022.71
2024-02-02T02:15:05.658Z,1022.66
2024-02-02T02:16:05.803Z,1022.70
2024-02-02T02:17:05.940Z,1022.73
2024-02-02T02:18:06.174Z,1022.73
2024-02-02T02:19:06.448Z,1022.77
2024-02-02T02:20:06.519Z,1022.63
2024-02-02T02:21:06.720Z,1022.69
2024-02-02T02:22:06.894Z,1022.70
2024-02-02T02:23:07.066Z,1022.73
2024-02-02T02:24:07.220Z,1022.70
2024-02-02T02:25:07.350Z,1022.68
2024-02-02T02:26:07.477Z,1022.62
2024-02-02T02:27:07.628Z,1022.62
2024-02-02T02:28:07.781Z,1022.62
2024-02-02T02:29:07.943Z,1022.57
2024-02-02T02:30:08.080Z,1022.57
2024-02-02T02:31:08.177Z,1022.53
2024-02-02T02:32:08.321Z,1022.59
2024-02-02T02:33:08.533Z,1022.54
2024-02-02T02:34:08.623Z,1022.47
2024-02-02T02:35:08.638Z,1022.48
2024-02-02T02:36:08.796Z,1022.52
2024-02-02T02:37:08.905Z,1022.52
2024-02-02T02:38:09.060Z,1022.50
2024-02-02T02:39:09.258Z,1022.51
2024-02-02T02:40:09.364Z,1022.56
2024-02-02T02:41:09.500Z,1022.56
2024-02-02T02:42:09.650Z,1022.50
2024-02-02T02:43:09.812Z,1022.50
2024-02-02T02:44:09.951Z,1022.46
2024-02-02T02:45:10.142Z,1022.45
2024-02-02T02:46:10.237Z,1022.49
2024-02-02T02:47:10.358Z,1022.40
2024-02-02T02:48:10.644Z,1022.39
2024-02-02T02:49:10.769Z,1022.38
2024-02-02T02:50:10.752Z,1022.44
2024-02-02T02:51:10.925Z,1022.42
2024-02-02T02:52:11.040Z,1022.40
2024-02-02T02:53:11.187Z,1022.51
2024-02-02T02:54:11.357Z,1022.40
2024-02-02T02:55:11.495Z,1022.42
2024-02-02T02:56:11.636Z,1022.39
2024-02-02T02:57:11.797Z,1022.34
2024-02-02T02:58:11.976Z,1022.30
2024-02-02T02:59:12.099Z,1022.29
2024-02-02T03:00:12.285Z,1022.35
2024-02-02T03:01:12.483Z,1022.28
2024-02-02T03:02:12.501Z,1022.32
2024-02-02T03:03:12.673Z,1022.37
2024-02-02T03:04:12.882Z,1022.37
2024-02-02T03:05:12.915Z,1022.34
2024-02-02T03:06:13.091Z,1022.30
2024-02-02T03:07:13.257Z,1022.30
2024-02-02T03:08:13.435Z,1022.30
2024-02-02T03:09:13.565Z,1022.32
2024-02-02T03:10:13.694Z,1022.26
2024-02-02T03:11:13.841Z,1022.30
2024-02-02T03:12:14.007Z,1022.28
2024-02-02T03:13:14.142Z,1022.29
2024-02-02T03:14:14.277Z,1022.40
2024-02-02T03:15:14.433Z,1022.30
2024-02-02T03:16:14.569Z,1022.41
2024-02-02T03:17:14.691Z,1022.40
2024-02-02T03:18:14.913Z,1022.35
2024-02-02T03:19:15.084Z,1022.31
2024-02-02T03:20:15.200Z,1022.36
2024-02-02T03:21:15.344Z,1022.36
2024-02-02T03:22:15.543Z,1022.39
2024-02-02T03:23:15.612Z,1022.42
2024-02-02T03:24:15.832Z,1022.47
2024-02-02T03:25:16.809Z,1022.49
2024-02-02T03:26:15.969Z,1022.46
2024-02-02T03:27:16.129Z,1022.44
2024-02-02T03:28:16.324Z,1022.45
2024-02-02T03:29:17.546Z,1022.50
2024-02-02T03:30:16.622Z,1022.42
2024-02-02T03:31:16.729Z,1022.51
2024-02-02T03:32:16.848Z,1022.49
2024-02-02T03:33:17.162Z,1022.56
2024-02-02T03:34:17.169Z,1022.56
2024-02-02T03:35:17.204Z,1022.50
2024-02-02T03:36:17.372Z,1022.52
2024-02-02T03:37:17.500Z,1022.48
2024-02-02T03:38:17.685Z,1022.48
2024-02-02T03:39:17.810Z,1022.45
2024-02-02T03:40:17.948Z,1022.38
2024-02-02T03:41:18.076Z,1022.38
2024-02-02T03:42:18.268Z,1022.46
2024-02-02T03:43:18.343Z,1022.37
2024-02-02T03:44:18.470Z,1022.35
2024-02-02T03:45:18.638Z,1022.37
2024-02-02T03:46:18.702Z,1022.36
2024-02-02T03:47:18.855Z,1022.37
2024-02-02T03:48:19.176Z,1022.36
2024-02-02T03:49:19.201Z,1022.32
2024-02-02T03:50:19.306Z,1022.36
2024-02-02T03:51:19.472Z,1022.33
2024-02-02T03:52:19.598Z,1022.31
2024-02-02T03:53:19.759Z,1022.36
2024-02-02T03:54:19.953Z,1022.38
2024-02-02T03:55:20.095Z,1022.35
2024-02-02T03:56:20.227Z,1022.32
2024-02-02T03:57:20.460Z,1022.33
2024-02-02T03:58:20.560Z,1022.32
2024-02-02T03:59:20.709Z,1022.33
2024-02-02T04:00:20.917Z,1022.30
2024-02-02T04:01:21.047Z,1022.32
2024-02-02T04:02:21.165Z,1022.33
2024-02-02T04:03:21.549Z,1022.32
2024-02-02T04:04:21.561Z,1022.31
2024-02-02T04:05:21.650Z,1022.33
2024-02-02T04:06:21.806Z,1022.37
2024-02-02T04:07:21.897Z,1022.28
2024-02-02T04:08:22.106Z,1022.31
2024-02-02T04:09:22.211Z,1022.28
2024-02-02T04:10:22.324Z,1022.35
2024-02-02T04:11:22.451Z,1022.38
2024-02-02T04:12:22.629Z,1022.35
2024-02-02T04:13:22.727Z,1022.40
2024-02-02T04:14:22.840Z,1022.44
2024-02-02T04:15:23.001Z,1022.45
2024-02-02T04:16:23.088Z,1022.41
2024-02-02T04:17:23.234Z,1022.39
2024-02-02T04:18:23.493Z,1022.38
2024-02-02T04:19:23.679Z,1022.40
2024-02-02T04:20:23.659Z,1022.39
2024-02-02T04:21:23.867Z,1022.41
2024-02-02T04:22:23.955Z,1022.40
2024-02-02T04:23:24.108Z,1022.41
2024-02-02T04:24:24.330Z,1022.39
2024-02-02T04:25:24.334Z,1022.37
2024-02-02T04:26:24.457Z,1022.33
2024-02-02T04:27:24.699Z,1022.33
2024-02-02T04:28:24.735Z,1022.34
2024-02-02T04:29:24.859Z,1022.33
2024-02-02T04:30:25.042Z,1022.31
2024-02-02T04:31:25.134Z,1022.32
2024-02-02T04:32:25.274Z,1022.26
2024-02-02T04:33:25.567Z,1022.27
2024-02-02T04:34:25.683Z,1022.27
2024-02-02T04:35:25.775Z,1022.22
2024-02-02T04:36:25.911Z,1022.24
2024-02-02T04:37:25.956Z,1022.20
2024-02-02T04:38:26.091Z,1022.23
2024-02-02T04:39:26.303Z,1022.22
2024-02-02T04:40:26.434Z,1022.23
2024-02-02T04:41:26.612Z,1022.19
2024-02-02T04:42:26.746Z,1022.22
2024-02-02T04:43:26.936Z,1022.22
2024-02-02T04:44:27.039Z,1022.19
2024-02-02T04:45:27.218Z,1022.20
2024-02-02T04:46:27.292Z,1022.21
2024-02-02T04:47:27.459Z,1022.22
2024-02-02T04:48:27.750Z,1022.23
2024-02-02T04:49:27.785Z,1022.21
2024-02-02T04:50:27.806Z,1022.23
2024-02-02T04:51:28.083Z,1022.15
2024-02-02T04:52:28.111Z,1022.16
2024-02-02T04:53:28.276Z,1022.19
2024-02-02T04:54:28.537Z,1022.19
2024-02-02T04:55:28.550Z,1022.20
2024-02-02T04:56:28.684Z,1022.17
2024-02-02T04:57:28.884Z,1022.16
2024-02-02T04:58:29.008Z,1022.18
2024-02-02T04:59:29.178Z,1022.21
2024-02-02T05:00:29.356Z,1022.20
2024-02-02T05:01:29.770Z,1022.20
2024-02-02T05:02:29.650Z,1022.20
2024-02-02T05:03:29.875Z,1022.16
2024-02-02T05:04:29.966Z,1022.15
2024-02-02T05:05:30.096Z,1022.16
2024-02-02T05:06:30.307Z,1022.12
2024-02-02T05:07:30.347Z,1022.10
2024-02-02T05:08:30.513Z,1022.11
2024-02-02T05:09:30.716Z,1022.10
2024-02-02T05:10:30.802Z,1022.02
2024-02-02T05:11:30.929Z,1022.03
2024-02-02T05:12:31.150Z,1021.96
2024-02-02T05:13:31.278Z,1022.01
2024-02-02T05:14:31.440Z,1021.99
2024-02-02T05:15:31.665Z,1021.98
2024-02-02T05:16:31.679Z,1021.97
2024-02-02T05:17:31.946Z,1021.97
2024-02-02T05:18:32.082Z,1021.95
2024-02-02T05:19:32.155Z,1021.96
2024-02-02T05:20:32.276Z,1021.90
2024-02-02T05:21:32.510Z,1021.93
2024-02-02T05:22:32.574Z,1021.87
2024-02-02T05:23:32.707Z,1021.83
2024-02-02T05:24:43.363Z,1021.73
2024-02-02T05:25:34.082Z,1021.77
2024-02-02T05:26:33.190Z,1021.75
2024-02-02T05:27:33.456Z,1021.77
2024-02-02T05:28:33.535Z,1021.78
2024-02-02T05:29:34.643Z,1021.77
2024-02-02T05:30:33.938Z,1021.78
2024-02-02T05:31:34.206Z,1021.78
2024-02-02T05:32:34.217Z,1021.79
2024-02-02T05:33:34.452Z,1021.83
2024-02-02T05:34:34.749Z,1021.77
2024-02-02T05:35:34.625Z,1021.77
2024-02-02T05:36:34.809Z,1021.73
2024-02-02T05:37:35.060Z,1021.77
2024-02-02T05:38:35.081Z,1021.76
2024-02-02T05:39:35.348Z,1021.73
2024-02-02T05:40:35.373Z,1021.74
2024-02-02T05:41:35.472Z,1021.74
2024-02-02T05:42:35.737Z,1021.71
2024-02-02T05:43:35.769Z,1021.75
2024-02-02T05:44:35.896Z,1021.77
2024-02-02T05:45:36.119Z,1021.76
2024-02-02T05:46:37.910Z,1021.78
2024-02-02T05:47:36.397Z,1021.81
2024-02-02T05:48:36.677Z,1021.76
2024-02-02T05:49:36.688Z,1021.76
2024-02-02T05:50:36.745Z,1021.74
2024-02-02T05:51:37.005Z,1021.75
2024-02-02T05:52:37.054Z,1021.73
2024-02-02T05:53:37.187Z,1021.71
2024-02-02T05:54:37.383Z,1021.63
2024-02-02T05:55:37.531Z,1021.62
2024-02-02T05:56:37.638Z,1021.65
2024-02-02T05:57:37.800Z,1021.70
2024-02-02T05:58:37.938Z,1021.72
2024-02-02T05:59:38.130Z,1021.71
2024-02-02T06:00:38.389Z,1021.72
2024-02-02T06:01:38.472Z,1021.69
2024-02-02T06:02:38.511Z,1021.68
2024-02-02T06:03:38.748Z,1021.68
2024-02-02T06:04:38.873Z,1021.63
2024-02-02T06:05:39.038Z,1021.68
2024-02-02T06:06:39.249Z,1021.68
2024-02-02T06:07:39.288Z,1021.70
2024-02-02T06:08:39.441Z,1021.69
2024-02-02T06:09:39.658Z,1021.69
2024-02-02T06:10:39.782Z,1021.72
2024-02-02T06:11:39.968Z,1021.75
2024-02-02T06:12:40.156Z,1021.76
2024-02-02T06:13:40.275Z,1021.77
2024-02-02T06:14:40.443Z,1021.75
2024-02-02T06:15:40.607Z,1021.74
2024-02-02T06:16:40.753Z,1021.76
2024-02-02T06:17:40.958Z,1021.77
2024-02-02T06:18:41.345Z,1021.74
2024-02-02T06:19:41.435Z,1021.76
2024-02-02T06:20:41.395Z,1021.75
2024-02-02T06:21:41.554Z,1021.76
2024-02-02T06:22:41.717Z,1021.79
2024-02-02T06:23:41.917Z,1021.78
2024-02-02T06:24:42.051Z,1021.78
2024-02-02T06:25:42.108Z,1021.76
2024-02-02T06:26:42.255Z,1021.77
2024-02-02T06:27:42.486Z,1021.82
2024-02-02T06:28:42.534Z,1021.83
2024-02-02T06:29:42.706Z,1021.86
2024-02-02T06:30:42.928Z,1021.88
2024-02-02T06:31:43.091Z,1021.86
2024-02-02T06:32:43.291Z,1021.90
2024-02-02T06:33:43.432Z,1021.89
2024-02-02T06:34:44.423Z,1021.84
2024-02-02T06:35:43.561Z,1021.85
2024-02-02T06:36:43.754Z,1021.88
2024-02-02T06:37:43.905Z,1021.86
2024-02-02T06:38:44.077Z,1021.87
2024-02-02T06:39:44.269Z,1021.91
2024-02-02T06:40:44.399Z,1021.91
2024-02-02T06:41:44.541Z,1021.90
2024-02-02T06:42:44.687Z,1021.88
2024-02-02T06:43:44.830Z,1021.87
2024-02-02T06:44:44.967Z,1021.86
2024-02-02T06:45:48.880Z,1021.83
2024-02-02T06:46:45.238Z,1021.79
2024-02-02T06:47:45.407Z,1021.75
2024-02-02T06:48:45.626Z,1021.75
2024-02-02T06:49:45.716Z,1021.73
2024-02-02T06:50:46.103Z,1021.77
2024-02-02T06:51:46.049Z,1021.76
2024-02-02T06:52:46.217Z,1021.77
2024-02-02T06:53:46.329Z,1021.81
2024-02-02T06:54:46.457Z,1021.84
2024-02-02T06:55:46.606Z,1021.83
2024-02-02T06:56:46.765Z,1021.81
2024-02-02T06:57:47.404Z,1021.81
2024-02-02T06:58:47.112Z,1021.75
2024-02-02T06:59:47.293Z,1021.73
2024-02-02T07:00:47.546Z,1021.69
2024-02-02T07:01:47.648Z,1021.68
2024-02-02T07:02:47.703Z,1021.61
2024-02-02T07:03:47.957Z,1021.58
2024-02-02T07:04:47.987Z,1021.55
2024-02-02T07:05:48.141Z,1021.52
2024-02-02T07:06:48.540Z,1021.54
2024-02-02T07:07:48.389Z,1021.52
2024-02-02T07:08:48.549Z,1021.46
2024-02-02T07:09:48.688Z,1021.44
2024-02-02T07:10:49.676Z,1021.40
2024-02-02T07:11:49.004Z,1021.34
2024-02-02T07:12:49.184Z,1021.36
2024-02-02T07:13:49.351Z,1021.37
2024-02-02T07:14:49.702Z,1021.41
2024-02-02T07:15:49.650Z,1021.36
2024-02-02T07:16:49.828Z,1021.37
2024-02-02T07:17:50.060Z,1021.41
2024-02-02T07:18:50.203Z,1021.36
2024-02-02T07:19:50.250Z,1021.37
2024-02-02T07:20:50.384Z,1021.30
2024-02-02T07:21:50.648Z,1021.33
2024-02-02T07:22:50.709Z,1021.39
2024-02-02T07:23:51.488Z,1021.41
2024-02-02T07:24:51.044Z,1021.41
2024-02-02T07:25:51.211Z,1021.41
2024-02-02T07:26:51.400Z,1021.34
2024-02-02T07:27:51.527Z,1021.35
2024-02-02T07:28:51.710Z,1021.31
2024-02-02T07:29:51.929Z,1021.31
2024-02-02T07:30:52.084Z,1021.33
2024-02-02T07:31:52.290Z,1021.33
2024-02-02T07:32:52.570Z,1021.30
2024-02-02T07:33:52.793Z,1021.29
2024-02-02T07:34:56.151Z,1021.23
2024-02-02T07:35:53.960Z,1021.18
2024-02-02T07:36:53.310Z,1021.17
2024-02-02T07:37:53.297Z,1021.06
2024-02-02T07:38:53.472Z,1021.06
2024-02-02T07:39:53.599Z,1021.11
2024-02-02T07:40:53.752Z,1021.09
2024-02-02T07:41:53.958Z,1021.07
2024-02-02T07:42:54.098Z,1021.02
2024-02-02T07:43:54.341Z,1021.04
2024-02-02T07:44:54.404Z,1021.02
2024-02-02T07:45:54.559Z,1021.02
2024-02-02T07:46:54.705Z,1020.97
2024-02-02T07:47:54.942Z,1020.96
2024-02-02T07:48:55.220Z,1020.92
2024-02-02T07:49:55.125Z,1020.85
2024-02-02T07:50:55.316Z,1020.85
2024-02-02T07:51:56.730Z,1020.84
2024-02-02T07:52:56.410Z,1020.85
2024-02-02T07:53:55.726Z,1020.85
2024-02-02T07:54:55.875Z,1020.88
2024-02-02T07:55:56.071Z,1020.89
2024-02-02T07:56:56.193Z,1020.92
2024-02-02T07:57:56.275Z,1020.90
2024-02-02T07:58:56.550Z,1020.93
2024-02-02T07:59:56.559Z,1020.90
2024-02-02T08:00:56.740Z,1020.88
2024-02-02T08:01:56.768Z,1020.88
2024-02-02T08:02:56.949Z,1020.86
2024-02-02T08:03:57.252Z,1020.82
2024-02-02T08:04:57.194Z,1020.81
2024-02-02T08:05:57.489Z,1020.80
2024-02-02T08:06:57.630Z,1020.80
2024-02-02T08:07:57.658Z,1020.78
2024-02-02T08:08:57.878Z,1020.75
2024-02-02T08:09:57.919Z,1020.77
2024-02-02T08:10:58.080Z,1020.84
2024-02-02T08:11:58.351Z,1020.87
2024-02-02T08:12:58.379Z,1020.86
2024-02-02T08:13:58.524Z,1020.89
2024-02-02T08:14:58.694Z,1020.88
2024-02-02T08:15:58.800Z,1020.88
2024-02-02T08:16:58.942Z,1020.84
2024-02-02T08:17:59.206Z,1020.86
2024-02-02T08:18:59.360Z,1020.85
2024-02-02T08:19:59.440Z,1020.90
2024-02-02T08:20:59.467Z,1020.84
2024-02-02T08:21:59.578Z,1020.84
2024-02-02T08:22:59.714Z,1020.81
2024-02-02T08:23:59.970Z,1020.80
2024-02-02T08:24:59.963Z,1020.74
2024-02-02T08:26:00.078Z,1020.70
2024-02-02T08:27:00.221Z,1020.73
2024-02-02T08:28:00.331Z,1020.74
2024-02-02T08:29:00.474Z,1020.64
2024-02-02T08:30:00.766Z,1020.63
2024-02-02T08:31:00.807Z,1020.65
2024-02-02T08:32:00.912Z,1020.68
2024-02-02T08:33:01.153Z,1020.69
2024-02-02T08:34:01.250Z,1020.73
2024-02-02T08:35:01.304Z,1020.66
2024-02-02T08:36:01.446Z,1020.64
2024-02-02T08:37:01.602Z,1020.62
2024-02-02T08:38:01.738Z,1020.58
2024-02-02T08:39:01.952Z,1020.58
2024-02-02T08:40:02.094Z,1020.56
2024-02-02T08:41:02.235Z,1020.60
2024-02-02T08:42:03.154Z,1020.54
2024-02-02T08:43:02.526Z,1020.53
2024-02-02T08:44:02.661Z,1020.54
2024-02-02T08:45:02.854Z,1020.53
2024-02-02T08:46:02.996Z,1020.50
2024-02-02T08:47:03.088Z,1020.52
2024-02-02T08:48:03.283Z,1020.54
2024-02-02T08:49:03.429Z,1020.54
2024-02-02T08:50:03.527Z,1020.51
2024-02-02T08:51:03.664Z,1020.55
2024-02-02T08:52:03.743Z,1020.58
2024-02-02T08:53:03.877Z,1020.52
2024-02-02T08:54:04.061Z,1020.56
2024-02-02T08:55:04.150Z,1020.52
2024-02-02T08:56:04.275Z,1020.51
2024-02-02T08:57:04.464Z,1020.51
2024-02-02T08:58:04.584Z,1020.33
2024-02-02T08:59:04.724Z,1020.36
2024-02-02T09:00:04.881Z,1020.33
2024-02-02T09:01:05.276Z,1020.32
2024-02-02T09:02:05.086Z,1020.35
2024-02-02T09:03:05.998Z,1020.34
2024-02-02T09:04:05.461Z,1020.35
2024-02-02T09:05:05.485Z,1020.44
2024-02-02T09:06:05.726Z,1020.32
2024-02-02T09:07:05.861Z,1020.35
2024-02-02T09:08:05.879Z,1020.28
2024-02-02T09:09:06.024Z,1020.37
2024-02-02T09:10:06.163Z,1020.34
2024-02-02T09:11:06.190Z,1020.29
2024-02-02T09:12:06.320Z,1020.30
2024-02-02T09:13:06.432Z,1020.24
2024-02-02T09:14:06.567Z,1020.25
2024-02-02T09:15:06.713Z,1020.23
2024-02-02T09:16:06.816Z,1020.14
2024-02-02T09:17:06.953Z,1020.08
2024-02-02T09:18:07.146Z,1020.17
2024-02-02T09:19:07.276Z,1020.10
2024-02-02T09:20:07.372Z,1020.09
2024-02-02T09:21:07.485Z,1020.09
2024-02-02T09:22:07.576Z,1020.18
2024-02-02T09:23:07.724Z,1020.18
2024-02-02T09:24:07.919Z,1020.20
2024-02-02T09:25:08.017Z,1020.21
2024-02-02T09:26:08.148Z,1020.15
2024-02-02T09:27:08.296Z,1020.17
2024-02-02T09:28:08.389Z,1020.23
2024-02-02T09:29:08.613Z,1020.21
2024-02-02T09:30:08.729Z,1020.22
2024-02-02T09:31:08.867Z,1020.27
2024-02-02T09:32:09.000Z,1020.34
2024-02-02T09:33:09.197Z,1020.33
2024-02-02T09:34:09.530Z,1020.33
2024-02-02T09:35:09.401Z,1020.30
2024-02-02T09:36:09.541Z,1020.28
2024-02-02T09:37:09.641Z,1020.26
2024-02-02T09:38:09.775Z,1020.21
2024-02-02T09:39:09.948Z,1020.21
2024-02-02T09:40:10.079Z,1020.21
2024-02-02T09:41:10.170Z,1020.20
2024-02-02T09:42:10.358Z,1020.16
2024-02-02T09:43:10.442Z,1020.15
2024-02-02T09:44:10.552Z,1020.12
2024-02-02T09:45:10.726Z,1020.03
2024-02-02T09:46:10.809Z,1020.00
2024-02-02T09:47:10.985Z,1019.85
2024-02-02T09:48:11.288Z,1019.84
2024-02-02T09:49:11.295Z,1019.81
2024-02-02T09:50:11.492Z,1019.78
2024-02-02T09:51:11.357Z,1019.82
2024-02-02T09:52:11.469Z,1019.78
2024-02-02T09:53:11.585Z,1019.80
2024-02-02T09:54:11.776Z,1019.83
2024-02-02T09:55:11.903Z,1019.82
2024-02-02T09:56:12.118Z,1019.78
2024-02-02T09:57:12.228Z,1019.80
2024-02-02T09:58:13.994Z,1019.80
2024-02-02T09:59:12.513Z,1019.84
2024-02-02T10:00:12.663Z,1019.76
2024-02-02T10:01:12.802Z,1019.81
2024-02-02T10:02:12.902Z,1019.80
2024-02-02T10:03:13.063Z,1019.83
2024-02-02T10:04:13.260Z,1019.86
2024-02-02T10:05:13.271Z,1019.87
2024-02-02T10:06:13.656Z,1019.86
2024-02-02T10:07:13.661Z,1019.85
2024-02-02T10:08:13.764Z,1019.83
2024-02-02T10:09:13.938Z,1019.77
2024-02-02T10:10:14.051Z,1019.83
2024-02-02T10:11:14.206Z,1019.86
2024-02-02T10:12:14.340Z,1019.87
2024-02-02T10:13:14.465Z,1019.79
2024-02-02T10:14:14.597Z,1019.84
2024-02-02T10:15:14.777Z,1019.91
2024-02-02T10:16:14.947Z,1019.89
2024-02-02T10:17:15.049Z,1019.89
2024-02-02T10:18:15.304Z,1019.90
2024-02-02T10:19:15.502Z,1019.88
2024-02-02T10:20:15.496Z,1019.90
2024-02-02T10:21:15.676Z,1019.88
2024-02-02T10:22:15.758Z,1019.87
2024-02-02T10:23:15.895Z,1019.83
2024-02-02T10:24:18.770Z,1019.82
2024-02-02T10:25:16.221Z,1019.75
2024-02-02T10:26:16.320Z,1019.67
2024-02-02T10:27:16.473Z,1019.62
2024-02-02T10:28:16.561Z,1019.56
2024-02-02T10:29:16.729Z,1019.49
2024-02-02T10:30:16.852Z,1019.49
2024-02-02T10:31:16.983Z,1019.49
2024-02-02T10:32:17.088Z,1019.43
2024-02-02T10:33:17.426Z,1019.38
2024-02-02T10:34:17.372Z,1019.31
2024-02-02T10:35:17.445Z,1019.29
2024-02-02T10:36:17.624Z,1019.30
2024-02-02T10:37:17.738Z,1019.26
2024-02-02T10:38:17.855Z,1019.18
2024-02-02T10:39:18.045Z,1019.21
2024-02-02T10:40:18.156Z,1019.19
2024-02-02T10:41:18.262Z,1019.25
2024-02-02T10:42:18.397Z,1019.23
2024-02-02T10:43:18.496Z,1019.28
2024-02-02T10:44:18.628Z,1019.29
2024-02-02T10:45:18.787Z,1019.33
2024-02-02T10:46:18.895Z,1019.33
2024-02-02T10:47:19.033Z,1019.35
2024-02-02T10:48:19.275Z,1019.27
2024-02-02T10:49:19.441Z,1019.29
2024-02-02T10:50:19.424Z,1019.20
2024-02-02T10:51:19.531Z,1019.17
2024-02-02T10:52:19.641Z,1019.16
2024-02-02T10:53:19.775Z,1019.13
2024-02-02T10:54:19.901Z,1019.14
2024-02-02T10:55:20.034Z,1019.16
2024-02-02T10:56:20.115Z,1019.15
2024-02-02T10:57:20.271Z,1019.12
2024-02-02T10:58:20.391Z,1019.06
2024-02-02T10:59:20.521Z,1019.09
2024-02-02T11:00:21.964Z,1019.15
2024-02-02T11:01:20.779Z,1019.08
2024-02-02T11:02:20.767Z,1019.09
2024-02-02T11:03:21.255Z,1019.07
2024-02-02T11:04:21.086Z,1019.11
2024-02-02T11:05:21.122Z,1019.05
2024-02-02T11:06:21.363Z,1018.99
2024-02-02T11:07:22.402Z,1019.02
2024-02-02T11:08:21.518Z,1019.03
2024-02-02T11:09:21.671Z,1018.96
2024-02-02T11:10:21.758Z,1018.93
2024-02-02T11:11:21.887Z,1018.91
2024-02-02T11:12:22.074Z,1018.93
2024-02-02T11:13:22.149Z,1018.95
2024-02-02T11:14:22.326Z,1018.89
2024-02-02T11:15:22.484Z,1018.81
2024-02-02T11:16:22.565Z,1018.78
2024-02-02T11:17:22.734Z,1018.78
2024-02-02T11:18:22.970Z,1018.75
2024-02-02T11:19:23.104Z,1018.64
2024-02-02T11:20:23.088Z,1018.62
2024-02-02T11:21:23.250Z,1018.60
2024-02-02T11:22:23.340Z,1018.60
2024-02-02T11:23:23.452Z,1018.59
2024-02-02T11:24:23.572Z,1018.56
2024-02-02T11:25:23.755Z,1018.56
2024-02-02T11:26:23.781Z,1018.45
2024-02-02T11:27:23.994Z,1018.41
2024-02-02T11:28:24.003Z,1018.45
2024-02-02T11:29:24.206Z,1018.49
2024-02-02T11:30:24.323Z,1018.48
2024-02-02T11:31:24.379Z,1018.44
2024-02-02T11:32:24.580Z,1018.43
2024-02-02T11:33:24.607Z,1018.45
2024-02-02T11:34:24.758Z,1018.36
2024-02-02T11:35:24.624Z,1018.36
2024-02-02T11:36:24.769Z,1018.34
2024-02-02T11:37:24.885Z,1018.23
2024-02-02T11:38:25.006Z,1018.25
2024-02-02T11:39:25.220Z,1018.27
2024-02-02T11:40:25.320Z,1018.26
2024-02-02T11:41:25.423Z,1018.29
2024-02-02T11:42:25.588Z,1018.25
2024-02-02T11:43:25.660Z,1018.27
2024-02-02T11:44:25.803Z,1018.14
2024-02-02T11:45:25.933Z,1018.09
2024-02-02T11:46:26.038Z,1018.06
2024-02-02T11:47:26.144Z,1018.05
2024-02-02T11:48:26.477Z,1018.02
2024-02-02T11:49:26.563Z,1017.99
2024-02-02T11:50:26.469Z,1017.96
2024-02-02T11:51:26.610Z,1017.92
2024-02-02T11:52:26.707Z,1017.89
2024-02-02T11:53:26.812Z,1017.87
2024-02-02T11:54:27.000Z,1017.89
2024-02-02T11:55:27.033Z,1017.91
2024-02-02T11:56:27.116Z,1017.90
2024-02-02T11:57:27.318Z,1017.89
2024-02-02T11:58:27.405Z,1017.80
2024-02-02T11:59:27.527Z,1017.86
2024-02-02T12:00:27.667Z,1017.82
2024-02-02T12:01:27.787Z,1017.74
2024-02-02T12:02:27.859Z,1017.76
2024-02-02T12:03:28.014Z,1017.68
2024-02-02T12:04:28.237Z,1017.68
2024-02-02T12:05:28.301Z,1017.69
2024-02-02T12:06:28.422Z,1017.66
2024-02-02T12:07:28.802Z,1017.62